Nearby METAR Reports

 

KIAD - Wash Dc/Dulles, Virginia, USA
Distance from station: ESE 7mi, 11km
Updated: Sat, 28-Mar-2020 3:52pm EDT
Overcast
Overcast
 Wind from SE
Wind: SE 9 mph , 15 km/h
Temperature: 57°F , 14°C
Dew Point: 54°F , 12°C
Humidity: 88%
Barometer: 29.90 inHg , 1012.5 hPa
Clouds: Overcast
Visibility: 10 miles , 16 km
Cloud details: Overcast 800 ft
2020/03/28 19:52 KIAD 281952Z 13008KT 10SM OVC008 14/12 A2990 RMK AO2 SLP124 T01390117
KJYO - Leesburg/Godfrey, Virginia, USA
Distance from station: N 7mi, 12km
Updated: Sat, 28-Mar-2020 4:35pm EDT
Overcast
Overcast
 Wind from ESE
Wind: ESE 6 mph , 9 km/h
Temperature: 52°F , 11°C
Dew Point: 52°F , 11°C
Humidity: 100%
Barometer: 29.91 inHg , 1012.9 hPa
Clouds: Overcast
Visibility: 5 miles , 8 km
Cloud details: Overcast 700 ft
2020/03/28 20:35 KJYO 282035Z AUTO 12005KT 5SM OVC007 11/11 A2991 RMK AO2
 
KHEF - Manassas Muni, Virginia, USA
Distance from station: S 17mi, 28km
Updated: Sat, 28-Mar-2020 3:56pm EDT
Overcast
Overcast
 Wind from SE
Wind: SE 8 mph , 13 km/h
Temperature: 57°F , 14°C
Dew Point: 55°F , 13°C
Humidity: 94%
Barometer: 29.90 inHg , 1012.5 hPa
Clouds: Overcast
Visibility: 10 miles , 16 km
Cloud details: Overcast 1000 ft
2020/03/28 19:56 KHEF 281956Z 13007KT 10SM OVC010 14/13 A2990 RMK AO2 SLP131 T01440128
KGAI - Gaithersburg, Maryland, USA
Distance from station: NE 26mi, 41km
Updated: Sat, 28-Mar-2020 3:56pm EDT
Mist, Overcast
Mist, Overcast
 Wind from SE
Wind: SE 10 mph , 17 km/h
Temperature: 55°F , 13°C
Dew Point: 54°F , 12°C
Humidity: 94%
Barometer: 29.91 inHg , 1012.9 hPa
Summary: Mist
Clouds: Overcast
Visibility: 4 miles , 6 km
Cloud details: Overcast 400 ft
2020/03/28 19:56 KGAI 281956Z AUTO 13009KT 4SM BR OVC004 13/12 A2991 RMK AO2 SLP144 T01280117
 
KDAA - Fort Belvoir/Dav, Virginia, USA
Distance from station: SE 27mi, 44km
Updated: Sat, 28-Mar-2020 3:56pm EDT
Overcast
Overcast
 Wind from ENE
Wind: ENE 3 mph , 6 km/h
Temperature: 59°F , 15°C
Dew Point: 54°F , 12°C
Humidity: 82%
Barometer: 29.90 inHg , 1012.5 hPa
Clouds: Overcast
Visibility: 10 miles , 16 km
Cloud details: Overcast 1100 ft
2020/03/28 19:56 KDAA 281956Z AUTO 06003KT 10SM OVC011 15/12 A2990 RMK AO2 SLP128 T01510120 $
KHWY - Warrenton, Virginia, USA
Distance from station: SSW 27mi, 44km
Updated: Sat, 28-Mar-2020 4:15pm EDT
Overcast
Overcast
 Wind from calm
Wind: Calm
Temperature: 61°F , 16°C
Dew Point: 54°F , 12°C
Humidity: 77%
Barometer: 29.89 inHg , 1012.2 hPa
Clouds: Overcast
Visibility: 10 miles , 16 km
Cloud details: Overcast 1200 ft
2020/03/28 20:15 KHWY 282015Z AUTO 00000KT 10SM OVC012 16/12 A2989 RMK AO2 T01630124
 
KDCA - Washington/Natl, Washington D.c., USA
Distance from station: ESE 30mi, 48km
Updated: Sat, 28-Mar-2020 3:52pm EDT
Overcast
Overcast
 Wind from E
Wind: E 8 mph , 13 km/h
Temperature: 57°F , 14°C
Dew Point: 54°F , 12°C
Humidity: 88%
Barometer: 29.92 inHg , 1013.2 hPa
Clouds: Overcast
Visibility: 10 miles , 16 km
Cloud details: Overcast 1100 ft
2020/03/28 19:52 KDCA 281952Z 09007KT 10SM OVC011 14/12 A2992 RMK AO2 SLP131 T01440122
KFDK - Frederick, Maryland, USA
Distance from station: NNE 33mi, 53km
Updated: Sat, 28-Mar-2020 3:47pm EDT
Overcast
Overcast
 Wind from SE
Wind: SE 3 mph , 6 km/h
Temperature: 57°F , 14°C
Dew Point: 54°F , 12°C
Humidity: 88%
Barometer: 29.91 inHg , 1012.9 hPa
Clouds: Overcast
Visibility: 6 miles , 10 km
Cloud details: Overcast 800 ft
2020/03/28 19:47 KFDK 281947Z 14003KT 6SM OVC008 14/12 A2991
 
KOKV - Winchester Rgnl, Virginia, USA
Distance from station: WNW 33mi, 54km
Updated: Sat, 28-Mar-2020 4:15pm EDT
Overcast
Overcast
 Wind from E
Wind: E 9 mph , 15 km/h
Temperature: 57°F , 14°C
Dew Point: 54°F , 12°C
Humidity: 88%
Barometer: 29.85 inHg , 1010.8 hPa
Clouds: Overcast
Visibility: 10 miles , 16 km
Cloud details: Overcast 900 ft
2020/03/28 20:15 KOKV 282015Z AUTO 10008KT 10SM OVC009 14/12 A2985 RMK AO2 LTG DSNT N
KCJR - Culpeper, Virginia, USA
Distance from station: SSW 34mi, 54km
Updated: Sat, 28-Mar-2020 4:15pm EDT
Overcast
Overcast
 Wind from calm
Wind: Calm
Temperature: 63°F , 17°C
Dew Point: 57°F , 14°C
Humidity: 83%
Barometer: 29.90 inHg , 1012.5 hPa
Clouds: Overcast
Visibility: 10 miles , 16 km
Cloud details: Overcast 1200 ft
2020/03/28 20:15 KCJR 282015Z AUTO 00000KT 10SM OVC012 17/14 A2990 RMK AO2 T01650135
 
KCGS - College Park, Maryland, USA
Distance from station: E 35mi, 56km
Updated: Sat, 28-Mar-2020 4:25pm EDT
Overcast
Overcast
 Wind from E
Wind: E 3 mph , 6 km/h
Temperature: 57°F , 14°C
Dew Point: 50°F , 10°C
Humidity: 77%
Barometer: 29.91 inHg , 1012.9 hPa
Clouds: Overcast
Visibility: 10 miles , 16 km
Cloud details: Overcast 1100 ft
2020/03/28 20:25 KCGS 282025Z AUTO 09003KT 10SM OVC011 14/10 A2991 RMK AO1 T01350095
KNYG - Quantico Mcaf, Virginia, USA
Distance from station: SSE 35mi, 57km
Updated: Sat, 28-Mar-2020 1:51pm EDT
NOT Current
Mist, Overcast
Mist, Overcast
 Wind from NNE
Wind: NNE 6 mph , 9 km/h
Temperature: 57°F , 14°C
Barometer: 29.97 inHg , 1014.9 hPa
Summary: Mist
Clouds: Overcast
Visibility: 3 miles , 5 km
Cloud details: Overcast 800 ft
2020/03/28 17:51 KNYG 281751Z AUTO 02005KT 3SM BR OVC008 14/ A2997 RMK AO2 $
 
KFRR - Fort Royal, Virginia, USA
Distance from station: W 37mi, 59km
Updated: Sat, 28-Mar-2020 4:15pm EDT
Clear
Clear
 Wind from E
Wind: E 6 mph , 9 km/h
Temperature: 64°F , 18°C
Dew Point: 57°F , 14°C
Humidity: 78%
Barometer: 29.83 inHg , 1010.2 hPa
Clouds: Clear
Visibility: 10 miles , 16 km
2020/03/28 20:15 KFRR 282015Z AUTO 08005KT 10SM CLR 18/14 A2983 RMK AO1
KMRB - Martinsburg, West Virginia, USA
Distance from station: NW 38mi, 61km
Updated: Sat, 28-Mar-2020 3:53pm EDT
Overcast
Overcast
 Wind from SE
Wind: SE 7 mph , 11 km/h
Temperature: 55°F , 13°C
Dew Point: 54°F , 12°C
Humidity: 94%
Barometer: 29.87 inHg , 1011.5 hPa
Clouds: Overcast
Visibility: 9 miles , 14 km
Cloud details: Overcast 800 ft
2020/03/28 19:53 KMRB 281953Z AUTO 13006KT 9SM OVC008 13/12 A2987 RMK AO2 SLP115 T01330117
 
KADW - Andrews Afb, Maryland, USA
Distance from station: ESE 39mi, 63km
Updated: Sat, 28-Mar-2020 3:56pm EDT
Overcast
Overcast
 Wind from E
Wind: E 9 mph , 15 km/h
Temperature: 57°F , 14°C
Dew Point: 52°F , 11°C
Humidity: 82%
Barometer: 29.90 inHg , 1012.5 hPa
Clouds: Overcast
Visibility: 10 miles , 16 km
Cloud details: Overcast 1000 ft
2020/03/28 19:56 KADW 281956Z AUTO 10008KT 10SM OVC010 14/11 A2990 RMK AO2 SLP132 T01390112 $
KRMN - Stafford Regnl, Virginia, USA
Distance from station: S 39mi, 63km
Updated: Sat, 28-Mar-2020 4:15pm EDT
Overcast
Overcast
 Wind from ENE
Wind: ENE 6 mph , 9 km/h
Temperature: 61°F , 16°C
Dew Point: 57°F , 14°C
Humidity: 88%
Barometer: 29.93 inHg , 1013.5 hPa
Clouds: Overcast
Visibility: 10 miles , 16 km
Cloud details: Overcast 1400 ft
2020/03/28 20:15 KRMN 282015Z AUTO 07005KT 10SM OVC014 16/14 A2993 RMK AO2 T01630144
 
KFME - Fort Meade, Maryland, USA
Distance from station: ENE 44mi, 70km
Updated: Sat, 28-Mar-2020 4:24pm EDT
Overcast
Overcast
 Wind from E
Wind: E 9 mph , 15 km/h
Temperature: 52°F , 11°C
Dew Point: 50°F , 10°C
Humidity: 94%
Barometer: 29.95 inHg , 1014.2 hPa
Clouds: Overcast
Visibility: 5 miles , 8 km
Cloud details: Overcast 400 ft
2020/03/28 20:24 KFME 282024Z AUTO 08008KT 5SM OVC004 11/10 A2995 RMK AO1
KRSP - Nsf Thurmont, Maryland, USA
Distance from station: N 48mi, 77km
Updated: Fri, 20-Mar-2020 2:43am EDT
NOT Current
Mist, Overcast
Mist, Overcast
 Wind from SW
Wind: SW 12 mph , 19 km/h, Gust: 20 mph , 31 km/h
Temperature: 55°F , 13°C
Dew Point: 55°F , 13°C
Humidity: 100%
Barometer: 30.06 inHg , 1017.9 hPa
Summary: Mist
Clouds: Overcast
Visibility: 2 miles , 3 km
Cloud details: Overcast 100 ft
2020/03/20 06:43 KRSP 200643Z AUTO 23010G17KT 2SM BR OVC001 13/13 A3006 RMK AO2 $
 
KEZF - Fredericksb/Shan, Virginia, USA
Distance from station: S 48mi, 78km
Updated: Sat, 28-Mar-2020 4:15pm EDT
Overcast
Overcast
 Wind from calm
Wind: Calm
Temperature: 63°F , 17°C
Dew Point: 59°F , 15°C
Humidity: 88%
Barometer: 29.88 inHg , 1011.9 hPa
Clouds: Overcast
Visibility: 10 miles , 16 km
Cloud details: Overcast 1600 ft
2020/03/28 20:15 KEZF 282015Z AUTO 00000KT 10SM OVC016 17/15 A2988 RMK AO2 T01740147
KBWI - Balto/Wash Intl, Maryland, USA
Distance from station: ENE 49mi, 80km
Updated: Sat, 28-Mar-2020 3:54pm EDT
Mist, Overcast
Mist, Overcast
 Wind from ENE
Wind: ENE 14 mph , 22 km/h
Temperature: 52°F , 11°C
Dew Point: 50°F , 10°C
Humidity: 94%
Barometer: 29.93 inHg , 1013.5 hPa
Summary: Mist
Clouds: Overcast
Visibility: 2 miles , 3 km
Cloud details: Overcast 400 ft
2020/03/28 19:54 KBWI 281954Z 07012KT 2SM BR OVC004 11/10 A2993 RMK AO2 DZE42 SLP133 P0000 T01110100